Terminal Aerodrome Forecast
Issued by NWS

Home | Current Version | Previous Version | Text Only | Print | Product List | Glossary On
Versions: 1 2 3 4 5 6 7 8 9 10 11 12 13 14 15
000
FTUS45 KGJT 291120
TAFCNY
TAF
KCNY 291120Z 2912/3012 24003KT P6SM FEW150
     FM291800 04004KT P6SM SCT150 SCT250
     FM292000 26008KT P6SM SCT130 SCT250
     FM300300 25006KT P6SM SCT250
     FM300800 18005KT P6SM SCT250
     FM301100 07004KT P6SM SCT250=

USA.gov is the U.S. government's official web portal to all federal, state and local government web resources and services.